MSC Cordoba — A8OF8 — position and weather

sailwx.info

Track history (hours):
 
Tides and Currents Weather Stations Pressure Air Temp Water Temp Dewpoint Dewpoint Depression Visibility Wind Speed Wind Dir Waves Ship Positions

MSC Cordoba

Last reported at 2015-Aug-02 05:31 UTC. Time now 2015-Aug-02 06:15 UTC.
Position N 51°19' E 004°19'.

Length 274 m; draft 10.5 m.

Type: Ship. MMSI: 636091473.

Date/timePositionNaut miles runAvg speedWind from/ knotsBaromVisibWave heightAir tempDewpointWater temp
2015-Aug-02 05:31N 51°19' E 004°19'0 0.0
2015-Aug-02 04:31N 51°19' E 004°19'0 0.0
2015-Aug-02 03:33N 51°19' E 004°19'2 1.7
2015-Aug-02 02:33N 51°21' E 004°17'0 0.0
2015-Aug-02 01:33N 51°21' E 004°17'3 3.4
2015-Aug-02 00:33N 51°23' E 004°13'8 8.0
2015-Aug-01 23:34N 51°26' E 004°01'1211.6
2015-Aug-01 22:33N 51°24' E 003°43'1211.9
2015-Aug-01 21:34N 51°24' E 003°24'1110.5
2015-Aug-01 20:33N 51°24' E 003°07'9 9.4
2015-Aug-01 19:33N 51°22' E 002°52'9 8.9
2015-Aug-01 18:33N 51°22' E 002°38'4 3.2
2015-Aug-01 17:20N 51°25' E 002°35'0 0.0
2015-Aug-01 16:32N 51°25' E 002°35'0 0.0
2015-Aug-01 15:31N 51°25' E 002°35'0 0.0
2015-Aug-01 14:31N 51°25' E 002°35'0 0.0
2015-Aug-01 13:25N 51°25' E 002°35'0 0.0
2015-Aug-01 12:30N 51°25' E 002°35'0 0.1
2015-Aug-01 11:27N 51°25' E 002°35'1 0.7
2015-Aug-01 09:14N 51°24' E 002°34'5 8.0
2015-Aug-01 08:33N 51°21' E 002°27'1413.7
2015-Aug-01 07:33N 51°20' E 002°05'1818.5
2015-Aug-01 06:34N 51°35' E 001°48'1716.8
2015-Aug-01 05:34N 51°51' E 001°39'1211.7
2015-Aug-01 04:34N 51°56' E 001°21'3 2.7
2015-Aug-01 03:33N 51°57' E 001°18'0 0.0
2015-Aug-01 02:33N 51°57' E 001°18'0 0.0
2015-Aug-01 01:33N 51°57' E 001°18'0 0.0
2015-Aug-01 00:32N 51°57' E 001°18'0 0.0
2015-Jul-31 23:32N 51°57' E 001°18'0 0.0
2015-Jul-31 22:31N 51°57' E 001°18'0 0.0
2015-Jul-31 21:31N 51°57' E 001°18'0 0.0
2015-Jul-31 20:30N 51°57' E 001°18'0 0.0
2015-Jul-31 19:33N 51°57' E 001°18'0 0.0
2015-Jul-31 18:26N 51°57' E 001°18'0 0.0
2015-Jul-31 17:29N 51°57' E 001°18'0 0.0
2015-Jul-31 16:29N 51°57' E 001°18'0 0.0
2015-Jul-31 15:31N 51°57' E 001°18'0 0.0
2015-Jul-31 14:28N 51°57' E 001°18'0 0.0
2015-Jul-31 13:33N 51°57' E 001°18'0 0.0
2015-Jul-31 12:33N 51°57' E 001°18'0 0.0
2015-Jul-31 11:32N 51°57' E 001°18'0 0.0
2015-Jul-31 10:32N 51°57' E 001°18'0 0.0
2015-Jul-31 09:32N 51°57' E 001°18'0 0.0
2015-Jul-31 08:28N 51°57' E 001°18'0 0.0
2015-Jul-31 07:31N 51°57' E 001°18'0 0.0
2015-Jul-31 06:33N 51°57' E 001°18'0 0.4
2015-Jul-31 05:33N 51°57' E 001°18'10 9.5
2015-Jul-31 04:33N 51°55' E 001°34'6 6.0
2015-Jul-31 03:34N 51°52' E 001°42'1 1.5
2015-Jul-31 02:34N 51°54' E 001°43'2 2.2
2015-Jul-31 01:33N 51°56' E 001°43'1 0.5
2015-Jul-31 00:28N 51°56' E 001°42'0 0.1
2015-Jul-30 23:34N 51°56' E 001°42'0 0.0
2015-Jul-30 22:33N 51°56' E 001°42'0 0.0
2015-Jul-30 21:33N 51°56' E 001°42'0 0.0
2015-Jul-30 20:32N 51°56' E 001°42'0 0.0
2015-Jul-30 19:32N 51°56' E 001°42'0 0.0
2015-Jul-30 18:31N 51°56' E 001°42'0 0.0
2015-Jul-30 17:31N 51°56' E 001°42'0 0.1
2015-Jul-30 16:30N 51°56' E 001°42'0 0.0
2015-Jul-30 15:33N 51°56' E 001°42'0 0.1
2015-Jul-30 14:33N 51°56' E 001°42'0 0.1
2015-Jul-30 13:33N 51°56' E 001°42'4 4.5
2015-Jul-30 12:33N 51°54' E 001°48'1817.5
2015-Jul-30 11:33N 51°36' E 001°49'1817.6
2015-Jul-30 10:33N 51°19' E 001°43'1414.2
2015-Jul-30 09:33N 51°05' E 001°40'1818.3
2015-Jul-30 08:33N 50°50' E 001°24'2317.9
2015-Jul-30 07:15N 50°32' E 001°00'1317.8
2015-Jul-30 06:32N 50°27' E 000°42'1313.7
2015-Jul-30 05:33N 50°24' E 000°21'74614.9
2015-Jul-28 03:33N 40°16' W 009°52'2019.7
2015-Jul-28 02:30N 39°55' W 009°50'1919.7
2015-Jul-28 01:33N 39°36' W 009°51'2019.6
2015-Jul-28 00:31N 39°16' W 009°51'1919.6
2015-Jul-27 23:34N 38°58' W 009°51'2019.7
2015-Jul-27 22:34N 38°38' W 009°51'2019.5
2015-Jul-27 21:33N 38°19' W 009°45'1919.4
2015-Jul-27 20:33N 37°60' W 009°39'1919.4
2015-Jul-27 19:33N 37°41' W 009°34'2019.5
2015-Jul-27 18:33N 37°22' W 009°28'1919.4
2015-Jul-27 17:33N 37°03' W 009°22'2018.9
2015-Jul-27 16:29N 36°46' W 009°09'1819.2
2015-Jul-27 15:33N 36°39' W 008°48'2019.6
2015-Jul-27 14:32N 36°33' W 008°25'1919.5
2015-Jul-27 13:33N 36°27' W 008°02'33419.5
2015-Jul-26 20:27N 36°34' W 001°06'1820.4
2015-Jul-26 19:33N 36°36' W 000°44'2137.1
2015-Jul-26 19:00N 36°36' W 000°18'3 5.9 100 / 101013.010.8 0.528.523.728.0
2015-Jul-26 18:33N 36°38' W 000°19'2020.4
2015-Jul-26 17:33N 36°41' E 000°06'2020.4
2015-Jul-26 16:33N 36°44' E 000°32'2020.2
2015-Jul-26 15:33N 36°47' E 000°57'2020.1
2015-Jul-26 14:33N 36°50' E 001°21'2220.8
2015-Jul-26 13:30N 36°52' E 001°49'56019.8
2015-Jul-25 09:16N 36°46' E 013°28'1519.8
2015-Jul-25 08:32N 36°41' E 013°45'1919.8
2015-Jul-25 07:33N 36°35' E 014°08'2020.0
2015-Jul-25 06:33N 36°29' E 014°32'2819.7
2015-Jul-25 05:10N 36°29' E 015°06'1219.0
2015-Jul-25 04:33N 36°27' E 015°20'20121.0
2015-Jul-24 19:00N 36°24' E 019°30'   010 / 61010.010.8 29.022.028.0
Track history (hours):
 
Tides and Currents Weather Stations Pressure Air Temp Water Temp Dewpoint Dewpoint Depression Visibility Wind Speed Wind Dir Waves Ship Positions

MSC Cordoba

Last reported at 2015-Aug-02 05:31 UTC. Time now 2015-Aug-02 06:15 UTC.
Position N 51°19' E 004°19'.

Length 274 m; draft 10.5 m.

Type: Ship. MMSI: 636091473.

Date/timePositionNaut miles runAvg speedWind from/ knotsBaromVisibWave heightAir tempDewpointWater temp
2015-Aug-02 05:31N 51°19' E 004°19'0 0.0
2015-Aug-02 04:31N 51°19' E 004°19'0 0.0
2015-Aug-02 03:33N 51°19' E 004°19'2 1.7
2015-Aug-02 02:33N 51°21' E 004°17'0 0.0
2015-Aug-02 01:33N 51°21' E 004°17'3 3.4
2015-Aug-02 00:33N 51°23' E 004°13'8 8.0
2015-Aug-01 23:34N 51°26' E 004°01'1211.6
2015-Aug-01 22:33N 51°24' E 003°43'1211.9
2015-Aug-01 21:34N 51°24' E 003°24'1110.5
2015-Aug-01 20:33N 51°24' E 003°07'9 9.4
2015-Aug-01 19:33N 51°22' E 002°52'9 8.9
2015-Aug-01 18:33N 51°22' E 002°38'4 3.2
2015-Aug-01 17:20N 51°25' E 002°35'0 0.0
2015-Aug-01 16:32N 51°25' E 002°35'0 0.0
2015-Aug-01 15:31N 51°25' E 002°35'0 0.0
2015-Aug-01 14:31N 51°25' E 002°35'0 0.0
2015-Aug-01 13:25N 51°25' E 002°35'0 0.0
2015-Aug-01 12:30N 51°25' E 002°35'0 0.1
2015-Aug-01 11:27N 51°25' E 002°35'1 0.7
2015-Aug-01 09:14N 51°24' E 002°34'5 8.0
2015-Aug-01 08:33N 51°21' E 002°27'1413.7
2015-Aug-01 07:33N 51°20' E 002°05'1818.5
2015-Aug-01 06:34N 51°35' E 001°48'1716.8
2015-Aug-01 05:34N 51°51' E 001°39'1211.7
2015-Aug-01 04:34N 51°56' E 001°21'3 2.7
2015-Aug-01 03:33N 51°57' E 001°18'0 0.0
2015-Aug-01 02:33N 51°57' E 001°18'0 0.0
2015-Aug-01 01:33N 51°57' E 001°18'0 0.0
2015-Aug-01 00:32N 51°57' E 001°18'0 0.0
2015-Jul-31 23:32N 51°57' E 001°18'0 0.0
2015-Jul-31 22:31N 51°57' E 001°18'0 0.0
2015-Jul-31 21:31N 51°57' E 001°18'0 0.0
2015-Jul-31 20:30N 51°57' E 001°18'0 0.0
2015-Jul-31 19:33N 51°57' E 001°18'0 0.0
2015-Jul-31 18:26N 51°57' E 001°18'0 0.0
2015-Jul-31 17:29N 51°57' E 001°18'0 0.0
2015-Jul-31 16:29N 51°57' E 001°18'0 0.0
2015-Jul-31 15:31N 51°57' E 001°18'0 0.0
2015-Jul-31 14:28N 51°57' E 001°18'0 0.0
2015-Jul-31 13:33N 51°57' E 001°18'0 0.0
2015-Jul-31 12:33N 51°57' E 001°18'0 0.0
2015-Jul-31 11:32N 51°57' E 001°18'0 0.0
2015-Jul-31 10:32N 51°57' E 001°18'0 0.0
2015-Jul-31 09:32N 51°57' E 001°18'0 0.0
2015-Jul-31 08:28N 51°57' E 001°18'0 0.0
2015-Jul-31 07:31N 51°57' E 001°18'0 0.0
2015-Jul-31 06:33N 51°57' E 001°18'0 0.4
2015-Jul-31 05:33N 51°57' E 001°18'10 9.5
2015-Jul-31 04:33N 51°55' E 001°34'6 6.0
2015-Jul-31 03:34N 51°52' E 001°42'1 1.5
2015-Jul-31 02:34N 51°54' E 001°43'2 2.2
2015-Jul-31 01:33N 51°56' E 001°43'1 0.5
2015-Jul-31 00:28N 51°56' E 001°42'0 0.1
2015-Jul-30 23:34N 51°56' E 001°42'0 0.0
2015-Jul-30 22:33N 51°56' E 001°42'0 0.0
2015-Jul-30 21:33N 51°56' E 001°42'0 0.0
2015-Jul-30 20:32N 51°56' E 001°42'0 0.0
2015-Jul-30 19:32N 51°56' E 001°42'0 0.0
2015-Jul-30 18:31N 51°56' E 001°42'0 0.0
2015-Jul-30 17:31N 51°56' E 001°42'0 0.1
2015-Jul-30 16:30N 51°56' E 001°42'0 0.0
2015-Jul-30 15:33N 51°56' E 001°42'0 0.1
2015-Jul-30 14:33N 51°56' E 001°42'0 0.1
2015-Jul-30 13:33N 51°56' E 001°42'4 4.5
2015-Jul-30 12:33N 51°54' E 001°48'1817.5
2015-Jul-30 11:33N 51°36' E 001°49'1817.6
2015-Jul-30 10:33N 51°19' E 001°43'1414.2
2015-Jul-30 09:33N 51°05' E 001°40'1818.3
2015-Jul-30 08:33N 50°50' E 001°24'2317.9
2015-Jul-30 07:15N 50°32' E 001°00'1317.8
2015-Jul-30 06:32N 50°27' E 000°42'1313.7
2015-Jul-30 05:33N 50°24' E 000°21'74614.9
2015-Jul-28 03:33N 40°16' W 009°52'2019.7
2015-Jul-28 02:30N 39°55' W 009°50'1919.7
2015-Jul-28 01:33N 39°36' W 009°51'2019.6
2015-Jul-28 00:31N 39°16' W 009°51'1919.6
2015-Jul-27 23:34N 38°58' W 009°51'2019.7
2015-Jul-27 22:34N 38°38' W 009°51'2019.5
2015-Jul-27 21:33N 38°19' W 009°45'1919.4
2015-Jul-27 20:33N 37°60' W 009°39'1919.4
2015-Jul-27 19:33N 37°41' W 009°34'2019.5
2015-Jul-27 18:33N 37°22' W 009°28'1919.4
2015-Jul-27 17:33N 37°03' W 009°22'2018.9
2015-Jul-27 16:29N 36°46' W 009°09'1819.2
2015-Jul-27 15:33N 36°39' W 008°48'2019.6
2015-Jul-27 14:32N 36°33' W 008°25'1919.5
2015-Jul-27 13:33N 36°27' W 008°02'33419.5
2015-Jul-26 20:27N 36°34' W 001°06'1820.4
2015-Jul-26 19:33N 36°36' W 000°44'2137.1
2015-Jul-26 19:00N 36°36' W 000°18'3 5.9 100 / 101013.010.8 0.528.523.728.0
2015-Jul-26 18:33N 36°38' W 000°19'2020.4
2015-Jul-26 17:33N 36°41' E 000°06'2020.4
2015-Jul-26 16:33N 36°44' E 000°32'2020.2
2015-Jul-26 15:33N 36°47' E 000°57'2020.1
2015-Jul-26 14:33N 36°50' E 001°21'2220.8
2015-Jul-26 13:30N 36°52' E 001°49'56019.8
2015-Jul-25 09:16N 36°46' E 013°28'1519.8
2015-Jul-25 08:32N 36°41' E 013°45'1919.8
2015-Jul-25 07:33N 36°35' E 014°08'2020.0
2015-Jul-25 06:33N 36°29' E 014°32'2819.7
2015-Jul-25 05:10N 36°29' E 015°06'1219.0
2015-Jul-25 04:33N 36°27' E 015°20'20121.0
2015-Jul-24 19:00N 36°24' E 019°30'   010 / 61010.010.8 29.022.028.0

Dump ship's entire track history